sensor_id;sensor_type;location;lat;lon;timestamp;P1;durP1;ratioP1;P2;durP2;ratioP2
17449;SDS011;8842;51.244;7.102;2023-11-21T00:00:50;12.50;;;11.87;;
17449;SDS011;8842;51.244;7.102;2023-11-21T00:06:02;12.80;;;12.10;;
17449;SDS011;8842;51.244;7.102;2023-11-21T00:11:07;12.70;;;12.00;;
17449;SDS011;8842;51.244;7.102;2023-11-21T00:16:21;13.00;;;12.30;;
17449;SDS011;8842;51.244;7.102;2023-11-21T00:21:28;12.80;;;12.10;;
17449;SDS011;8842;51.244;7.102;2023-11-21T00:26:39;12.97;;;12.27;;
17449;SDS011;8842;51.244;7.102;2023-11-21T00:31:44;12.50;;;11.90;;
17449;SDS011;8842;51.244;7.102;2023-11-21T00:36:48;12.43;;;11.83;;
17449;SDS011;8842;51.244;7.102;2023-11-21T00:41:52;12.53;;;11.93;;
17449;SDS011;8842;51.244;7.102;2023-11-21T00:46:56;12.23;;;11.63;;
17449;SDS011;8842;51.244;7.102;2023-11-21T00:52:00;12.53;;;11.93;;
17449;SDS011;8842;51.244;7.102;2023-11-21T00:57:05;12.50;;;11.90;;
17449;SDS011;8842;51.244;7.102;2023-11-21T01:02:11;12.50;;;11.90;;
17449;SDS011;8842;51.244;7.102;2023-11-21T01:07:22;12.73;;;12.03;;
17449;SDS011;8842;51.244;7.102;2023-11-21T01:12:27;12.80;;;12.10;;
17449;SDS011;8842;51.244;7.102;2023-11-21T01:17:38;12.90;;;12.20;;
17449;SDS011;8842;51.244;7.102;2023-11-21T01:22:43;12.73;;;12.03;;
17449;SDS011;8842;51.244;7.102;2023-11-21T01:27:47;12.47;;;11.87;;
17449;SDS011;8842;51.244;7.102;2023-11-21T01:32:51;12.33;;;11.73;;
17449;SDS011;8842;51.244;7.102;2023-11-21T01:38:06;12.40;;;11.80;;
17449;SDS011;8842;51.244;7.102;2023-11-21T01:43:10;13.17;;;12.47;;
17449;SDS011;8842;51.244;7.102;2023-11-21T01:48:15;12.80;;;12.10;;
17449;SDS011;8842;51.244;7.102;2023-11-21T01:53:19;12.90;;;12.20;;
17449;SDS011;8842;51.244;7.102;2023-11-21T01:58:31;12.87;;;12.17;;
17449;SDS011;8842;51.244;7.102;2023-11-21T02:03:35;13.10;;;12.40;;
17449;SDS011;8842;51.244;7.102;2023-11-21T02:08:47;12.93;;;12.23;;
17449;SDS011;8842;51.244;7.102;2023-11-21T02:13:51;12.43;;;11.83;;
17449;SDS011;8842;51.244;7.102;2023-11-21T02:19:03;12.80;;;12.10;;
17449;SDS011;8842;51.244;7.102;2023-11-21T02:24:11;12.50;;;11.90;;
17449;SDS011;8842;51.244;7.102;2023-11-21T02:29:16;12.60;;;12.00;;
17449;SDS011;8842;51.244;7.102;2023-11-21T02:34:21;12.10;;;11.50;;
17449;SDS011;8842;51.244;7.102;2023-11-21T02:39:33;12.43;;;11.83;;
17449;SDS011;8842;51.244;7.102;2023-11-21T02:44:37;12.40;;;11.80;;
17449;SDS011;8842;51.244;7.102;2023-11-21T02:49:42;12.63;;;11.93;;
17449;SDS011;8842;51.244;7.102;2023-11-21T02:54:53;12.40;;;11.80;;
17449;SDS011;8842;51.244;7.102;2023-11-21T02:59:57;12.60;;;11.90;;
17449;SDS011;8842;51.244;7.102;2023-11-21T03:05:02;12.53;;;11.87;;
17449;SDS011;8842;51.244;7.102;2023-11-21T03:10:08;12.40;;;11.80;;
17449;SDS011;8842;51.244;7.102;2023-11-21T03:15:13;12.50;;;11.90;;
17449;SDS011;8842;51.244;7.102;2023-11-21T03:20:17;12.50;;;11.90;;
17449;SDS011;8842;51.244;7.102;2023-11-21T03:25:22;12.30;;;11.70;;
17449;SDS011;8842;51.244;7.102;2023-11-21T03:30:26;12.40;;;11.80;;
17449;SDS011;8842;51.244;7.102;2023-11-21T03:35:38;12.47;;;11.87;;
17449;SDS011;8842;51.244;7.102;2023-11-21T03:40:44;12.70;;;12.00;;
17449;SDS011;8842;51.244;7.102;2023-11-21T03:45:56;12.70;;;12.00;;
17449;SDS011;8842;51.244;7.102;2023-11-21T03:51:00;12.70;;;12.00;;
17449;SDS011;8842;51.244;7.102;2023-11-21T03:56:05;12.70;;;12.00;;
17449;SDS011;8842;51.244;7.102;2023-11-21T04:01:09;12.83;;;12.13;;
17449;SDS011;8842;51.244;7.102;2023-11-21T04:06:14;13.20;;;12.50;;
17449;SDS011;8842;51.244;7.102;2023-11-21T04:11:18;13.30;;;12.60;;
17449;SDS011;8842;51.244;7.102;2023-11-21T04:16:22;13.30;;;12.60;;
17449;SDS011;8842;51.244;7.102;2023-11-21T04:21:34;13.10;;;12.40;;
17449;SDS011;8842;51.244;7.102;2023-11-21T04:26:38;12.80;;;12.10;;
17449;SDS011;8842;51.244;7.102;2023-11-21T04:31:49;13.30;;;12.60;;
17449;SDS011;8842;51.244;7.102;2023-11-21T04:36:53;13.20;;;12.50;;
17449;SDS011;8842;51.244;7.102;2023-11-21T04:41:58;12.60;;;11.90;;
17449;SDS011;8842;51.244;7.102;2023-11-21T04:47:02;13.37;;;12.67;;
17449;SDS011;8842;51.244;7.102;2023-11-21T04:52:07;13.27;;;12.57;;
17449;SDS011;8842;51.244;7.102;2023-11-21T04:57:19;13.70;;;13.00;;
17449;SDS011;8842;51.244;7.102;2023-11-21T05:02:23;13.90;;;13.20;;
17449;SDS011;8842;51.244;7.102;2023-11-21T05:07:34;13.60;;;12.90;;
17449;SDS011;8842;51.244;7.102;2023-11-21T05:12:39;13.73;;;13.03;;
17449;SDS011;8842;51.244;7.102;2023-11-21T05:17:51;13.47;;;12.77;;
17449;SDS011;8842;51.244;7.102;2023-11-21T05:22:56;14.23;;;13.43;;
17449;SDS011;8842;51.244;7.102;2023-11-21T05:28:01;14.07;;;13.37;;
17449;SDS011;8842;51.244;7.102;2023-11-21T05:33:06;13.77;;;13.07;;
17449;SDS011;8842;51.244;7.102;2023-11-21T05:38:10;14.50;;;13.70;;
17449;SDS011;8842;51.244;7.102;2023-11-21T05:43:15;13.87;;;13.17;;
17449;SDS011;8842;51.244;7.102;2023-11-21T05:48:19;14.10;;;13.40;;
17449;SDS011;8842;51.244;7.102;2023-11-21T05:53:23;13.57;;;12.87;;
17449;SDS011;8842;51.244;7.102;2023-11-21T05:58:27;14.83;;;14.03;;
17449;SDS011;8842;51.244;7.102;2023-11-21T06:03:31;14.30;;;13.50;;
17449;SDS011;8842;51.244;7.102;2023-11-21T06:08:35;13.97;;;13.27;;
17449;SDS011;8842;51.244;7.102;2023-11-21T06:13:47;13.70;;;13.00;;
17449;SDS011;8842;51.244;7.102;2023-11-21T06:18:52;14.20;;;13.50;;
17449;SDS011;8842;51.244;7.102;2023-11-21T06:23:56;14.17;;;13.47;;
17449;SDS011;8842;51.244;7.102;2023-11-21T06:29:08;14.07;;;13.37;;
17449;SDS011;8842;51.244;7.102;2023-11-21T06:34:12;13.70;;;13.00;;
17449;SDS011;8842;51.244;7.102;2023-11-21T06:39:16;13.90;;;13.20;;
17449;SDS011;8842;51.244;7.102;2023-11-21T06:44:20;14.50;;;13.70;;
17449;SDS011;8842;51.244;7.102;2023-11-21T06:49:24;14.40;;;13.60;;
17449;SDS011;8842;51.244;7.102;2023-11-21T06:54:28;14.40;;;13.60;;
17449;SDS011;8842;51.244;7.102;2023-11-21T06:59:35;14.53;;;13.73;;
17449;SDS011;8842;51.244;7.102;2023-11-21T07:04:47;14.70;;;13.90;;
17449;SDS011;8842;51.244;7.102;2023-11-21T07:09:51;13.97;;;13.27;;
17449;SDS011;8842;51.244;7.102;2023-11-21T07:14:55;14.20;;;13.47;;
17449;SDS011;8842;51.244;7.102;2023-11-21T07:19:59;14.47;;;13.67;;
17449;SDS011;8842;51.244;7.102;2023-11-21T07:25:04;14.60;;;13.80;;
17449;SDS011;8842;51.244;7.102;2023-11-21T07:30:11;14.70;;;13.90;;
17449;SDS011;8842;51.244;7.102;2023-11-21T07:35:16;14.87;;;14.07;;
17449;SDS011;8842;51.244;7.102;2023-11-21T07:40:20;15.33;;;14.53;;
17449;SDS011;8842;51.244;7.102;2023-11-21T07:45:32;14.83;;;14.03;;
17449;SDS011;8842;51.244;7.102;2023-11-21T07:50:36;15.00;;;14.20;;
17449;SDS011;8842;51.244;7.102;2023-11-21T07:55:50;15.00;;;14.20;;
17449;SDS011;8842;51.244;7.102;2023-11-21T08:00:55;15.30;;;14.50;;
17449;SDS011;8842;51.244;7.102;2023-11-21T08:05:59;14.63;;;13.83;;
17449;SDS011;8842;51.244;7.102;2023-11-21T08:11:05;14.83;;;14.03;;
17449;SDS011;8842;51.244;7.102;2023-11-21T08:16:11;14.17;;;13.47;;
17449;SDS011;8842;51.244;7.102;2023-11-21T08:21:15;14.70;;;13.90;;
17449;SDS011;8842;51.244;7.102;2023-11-21T08:26:27;13.80;;;13.10;;
17449;SDS011;8842;51.244;7.102;2023-11-21T08:31:31;14.47;;;13.67;;
17449;SDS011;8842;51.244;7.102;2023-11-21T08:36:43;14.57;;;13.77;;
17449;SDS011;8842;51.244;7.102;2023-11-21T08:41:48;14.40;;;13.60;;
17449;SDS011;8842;51.244;7.102;2023-11-21T08:47:00;14.13;;;13.43;;
17449;SDS011;8842;51.244;7.102;2023-11-21T08:52:04;14.53;;;13.73;;
17449;SDS011;8842;51.244;7.102;2023-11-21T08:57:09;14.30;;;13.50;;
17449;SDS011;8842;51.244;7.102;2023-11-21T09:02:21;14.03;;;13.33;;
17449;SDS011;8842;51.244;7.102;2023-11-21T09:07:26;14.00;;;13.30;;
17449;SDS011;8842;51.244;7.102;2023-11-21T09:12:30;14.50;;;13.70;;
17449;SDS011;8842;51.244;7.102;2023-11-21T09:17:35;13.83;;;13.13;;
17449;SDS011;8842;51.244;7.102;2023-11-21T09:22:39;13.80;;;13.10;;
17449;SDS011;8842;51.244;7.102;2023-11-21T09:32:54;13.80;;;13.10;;
17449;SDS011;8842;51.244;7.102;2023-11-21T09:37:58;13.90;;;13.20;;
17449;SDS011;8842;51.244;7.102;2023-11-21T09:43:15;13.93;;;13.23;;
17449;SDS011;8842;51.244;7.102;2023-11-21T09:48:20;13.97;;;13.27;;
17449;SDS011;8842;51.244;7.102;2023-11-21T09:53:25;13.70;;;13.00;;
17449;SDS011;8842;51.244;7.102;2023-11-21T09:58:38;13.80;;;13.10;;
17449;SDS011;8842;51.244;7.102;2023-11-21T10:03:42;13.93;;;13.23;;
17449;SDS011;8842;51.244;7.102;2023-11-21T10:08:47;14.27;;;13.50;;
17449;SDS011;8842;51.244;7.102;2023-11-21T10:13:59;14.17;;;13.47;;
17449;SDS011;8842;51.244;7.102;2023-11-21T10:19:06;14.60;;;13.80;;
17449;SDS011;8842;51.244;7.102;2023-11-21T10:24:19;14.07;;;13.37;;
17449;SDS011;8842;51.244;7.102;2023-11-21T10:29:24;14.13;;;13.43;;
17449;SDS011;8842;51.244;7.102;2023-11-21T10:34:31;14.60;;;13.80;;
17449;SDS011;8842;51.244;7.102;2023-11-21T10:39:36;14.57;;;13.77;;
17449;SDS011;8842;51.244;7.102;2023-11-21T10:44:41;17.07;;;16.17;;
17449;SDS011;8842;51.244;7.102;2023-11-21T10:49:48;14.63;;;13.83;;
17449;SDS011;8842;51.244;7.102;2023-11-21T10:54:52;14.50;;;13.70;;
17449;SDS011;8842;51.244;7.102;2023-11-21T10:59:56;14.40;;;13.60;;
17449;SDS011;8842;51.244;7.102;2023-11-21T11:05:01;14.00;;;13.30;;
17449;SDS011;8842;51.244;7.102;2023-11-21T11:10:13;13.40;;;12.70;;
17449;SDS011;8842;51.244;7.102;2023-11-21T11:15:18;13.40;;;12.70;;
17449;SDS011;8842;51.244;7.102;2023-11-21T11:20:34;12.20;;;11.60;;
17449;SDS011;8842;51.244;7.102;2023-11-21T11:25:45;13.00;;;12.30;;
17449;SDS011;8842;51.244;7.102;2023-11-21T11:31:01;13.20;;;12.50;;
17449;SDS011;8842;51.244;7.102;2023-11-21T11:36:13;13.60;;;12.90;;
17449;SDS011;8842;51.244;7.102;2023-11-21T11:41:26;13.40;;;12.70;;
17449;SDS011;8842;51.244;7.102;2023-11-21T11:46:41;13.70;;;13.00;;
17449;SDS011;8842;51.244;7.102;2023-11-21T11:51:48;13.67;;;12.97;;
17449;SDS011;8842;51.244;7.102;2023-11-21T11:56:54;13.30;;;12.60;;
17449;SDS011;8842;51.244;7.102;2023-11-21T12:02:09;12.50;;;11.90;;
17449;SDS011;8842;51.244;7.102;2023-11-21T12:07:13;13.00;;;12.30;;
17449;SDS011;8842;51.244;7.102;2023-11-21T12:12:18;13.20;;;12.50;;
17449;SDS011;8842;51.244;7.102;2023-11-21T12:17:29;12.63;;;11.93;;
17449;SDS011;8842;51.244;7.102;2023-11-21T12:22:33;12.80;;;12.10;;
17449;SDS011;8842;51.244;7.102;2023-11-21T12:27:45;12.80;;;12.10;;
17449;SDS011;8842;51.244;7.102;2023-11-21T12:32:52;13.10;;;12.40;;
17449;SDS011;8842;51.244;7.102;2023-11-21T12:37:58;12.53;;;11.87;;
17449;SDS011;8842;51.244;7.102;2023-11-21T12:43:06;12.37;;;11.77;;
17449;SDS011;8842;51.244;7.102;2023-11-21T12:48:18;12.37;;;11.77;;
17449;SDS011;8842;51.244;7.102;2023-11-21T12:53:24;12.13;;;11.53;;
17449;SDS011;8842;51.244;7.102;2023-11-21T12:58:37;12.47;;;11.87;;
17449;SDS011;8842;51.244;7.102;2023-11-21T13:03:42;12.17;;;11.57;;
17449;SDS011;8842;51.244;7.102;2023-11-21T13:08:54;12.20;;;11.60;;
17449;SDS011;8842;51.244;7.102;2023-11-21T13:13:59;12.83;;;12.13;;
17449;SDS011;8842;51.244;7.102;2023-11-21T13:19:11;11.87;;;11.27;;
17449;SDS011;8842;51.244;7.102;2023-11-21T13:24:15;11.60;;;11.00;;
17449;SDS011;8842;51.244;7.102;2023-11-21T13:29:20;12.33;;;11.73;;
17449;SDS011;8842;51.244;7.102;2023-11-21T13:34:32;12.20;;;11.60;;
17449;SDS011;8842;51.244;7.102;2023-11-21T13:39:38;12.30;;;11.70;;
17449;SDS011;8842;51.244;7.102;2023-11-21T13:44:55;12.70;;;12.00;;
17449;SDS011;8842;51.244;7.102;2023-11-21T13:49:59;13.00;;;12.30;;
17449;SDS011;8842;51.244;7.102;2023-11-21T13:55:11;12.30;;;11.70;;
17449;SDS011;8842;51.244;7.102;2023-11-21T14:00:17;12.33;;;11.73;;
17449;SDS011;8842;51.244;7.102;2023-11-21T14:05:45;13.10;;;12.40;;
17449;SDS011;8842;51.244;7.102;2023-11-21T14:10:51;13.10;;;12.40;;
17449;SDS011;8842;51.244;7.102;2023-11-21T14:15:57;13.00;;;12.30;;
17449;SDS011;8842;51.244;7.102;2023-11-21T14:21:03;13.80;;;13.10;;
17449;SDS011;8842;51.244;7.102;2023-11-21T14:26:17;12.77;;;12.07;;
17449;SDS011;8842;51.244;7.102;2023-11-21T14:31:22;13.87;;;13.17;;
17449;SDS011;8842;51.244;7.102;2023-11-21T14:36:26;13.50;;;12.80;;
17449;SDS011;8842;51.244;7.102;2023-11-21T14:41:38;13.50;;;12.80;;
17449;SDS011;8842;51.244;7.102;2023-11-21T14:51:55;13.30;;;12.60;;
17449;SDS011;8842;51.244;7.102;2023-11-21T14:57:03;12.90;;;12.20;;
17449;SDS011;8842;51.244;7.102;2023-11-21T15:02:09;12.80;;;12.10;;
17449;SDS011;8842;51.244;7.102;2023-11-21T15:12:29;12.93;;;12.23;;
17449;SDS011;8842;51.244;7.102;2023-11-21T15:17:35;12.20;;;11.60;;
17449;SDS011;8842;51.244;7.102;2023-11-21T15:22:39;12.20;;;11.60;;
17449;SDS011;8842;51.244;7.102;2023-11-21T15:27:43;12.20;;;11.60;;
17449;SDS011;8842;51.244;7.102;2023-11-21T15:32:49;13.20;;;12.50;;
17449;SDS011;8842;51.244;7.102;2023-11-21T15:37:54;12.40;;;11.80;;
17449;SDS011;8842;51.244;7.102;2023-11-21T15:43:00;12.60;;;11.90;;
17449;SDS011;8842;51.244;7.102;2023-11-21T15:48:05;12.87;;;12.17;;
17449;SDS011;8842;51.244;7.102;2023-11-21T15:53:12;12.70;;;12.00;;
17449;SDS011;8842;51.244;7.102;2023-11-21T15:58:16;12.40;;;11.80;;
17449;SDS011;8842;51.244;7.102;2023-11-21T16:08:31;13.20;;;12.50;;
17449;SDS011;8842;51.244;7.102;2023-11-21T16:13:35;12.00;;;11.40;;
17449;SDS011;8842;51.244;7.102;2023-11-21T16:18:47;12.00;;;11.40;;
17449;SDS011;8842;51.244;7.102;2023-11-21T16:23:51;11.80;;;11.20;;
17449;SDS011;8842;51.244;7.102;2023-11-21T16:28:55;12.40;;;11.80;;
17449;SDS011;8842;51.244;7.102;2023-11-21T16:34:11;12.80;;;12.10;;
17449;SDS011;8842;51.244;7.102;2023-11-21T16:44:27;12.00;;;11.40;;
17449;SDS011;8842;51.244;7.102;2023-11-21T16:49:32;12.80;;;12.10;;
17449;SDS011;8842;51.244;7.102;2023-11-21T16:54:38;12.63;;;11.97;;
17449;SDS011;8842;51.244;7.102;2023-11-21T16:59:42;12.80;;;12.10;;
17449;SDS011;8842;51.244;7.102;2023-11-21T17:04:54;13.70;;;13.00;;
17449;SDS011;8842;51.244;7.102;2023-11-21T17:09:58;13.60;;;12.90;;
17449;SDS011;8842;51.244;7.102;2023-11-21T17:15:02;13.17;;;12.47;;
17449;SDS011;8842;51.244;7.102;2023-11-21T17:20:10;13.03;;;12.33;;
17449;SDS011;8842;51.244;7.102;2023-11-21T17:25:24;12.23;;;11.63;;
17449;SDS011;8842;51.244;7.102;2023-11-21T17:30:28;12.37;;;11.77;;
17449;SDS011;8842;51.244;7.102;2023-11-21T17:35:34;12.33;;;11.73;;
17449;SDS011;8842;51.244;7.102;2023-11-21T17:40:38;12.37;;;11.77;;
17449;SDS011;8842;51.244;7.102;2023-11-21T17:45:50;12.10;;;11.50;;
17449;SDS011;8842;51.244;7.102;2023-11-21T17:50:54;11.97;;;11.37;;
17449;SDS011;8842;51.244;7.102;2023-11-21T17:55:58;11.93;;;11.33;;
17449;SDS011;8842;51.244;7.102;2023-11-21T18:01:02;11.53;;;10.93;;
17449;SDS011;8842;51.244;7.102;2023-11-21T18:06:06;11.53;;;10.93;;
17449;SDS011;8842;51.244;7.102;2023-11-21T18:11:18;12.10;;;11.50;;
17449;SDS011;8842;51.244;7.102;2023-11-21T18:16:22;11.37;;;10.77;;
17449;SDS011;8842;51.244;7.102;2023-11-21T18:21:26;12.00;;;11.40;;
17449;SDS011;8842;51.244;7.102;2023-11-21T18:26:30;11.87;;;11.23;;
17449;SDS011;8842;51.244;7.102;2023-11-21T18:31:34;12.73;;;12.03;;
17449;SDS011;8842;51.244;7.102;2023-11-21T18:36:42;11.93;;;11.33;;
17449;SDS011;8842;51.244;7.102;2023-11-21T18:41:54;11.70;;;11.10;;
17449;SDS011;8842;51.244;7.102;2023-11-21T18:46:58;11.60;;;11.00;;
17449;SDS011;8842;51.244;7.102;2023-11-21T18:52:10;10.80;;;10.20;;
17449;SDS011;8842;51.244;7.102;2023-11-21T18:57:15;10.87;;;10.27;;
17449;SDS011;8842;51.244;7.102;2023-11-21T19:02:20;10.60;;;10.10;;
17449;SDS011;8842;51.244;7.102;2023-11-21T19:07:24;11.27;;;10.67;;
17449;SDS011;8842;51.244;7.102;2023-11-21T19:12:30;10.33;;;9.83;;
17449;SDS011;8842;51.244;7.102;2023-11-21T19:17:34;10.20;;;9.70;;
17449;SDS011;8842;51.244;7.102;2023-11-21T19:22:38;10.00;;;9.50;;
17449;SDS011;8842;51.244;7.102;2023-11-21T19:27:43;10.17;;;9.67;;
17449;SDS011;8842;51.244;7.102;2023-11-21T19:32:47;9.97;;;9.47;;
17449;SDS011;8842;51.244;7.102;2023-11-21T19:37:51;10.10;;;9.60;;
17449;SDS011;8842;51.244;7.102;2023-11-21T19:42:55;10.30;;;9.80;;
17449;SDS011;8842;51.244;7.102;2023-11-21T19:47:59;10.43;;;9.93;;
17449;SDS011;8842;51.244;7.102;2023-11-21T19:53:05;10.30;;;9.80;;
17449;SDS011;8842;51.244;7.102;2023-11-21T19:58:17;10.30;;;9.80;;
17449;SDS011;8842;51.244;7.102;2023-11-21T20:03:21;10.10;;;9.60;;
17449;SDS011;8842;51.244;7.102;2023-11-21T20:08:32;10.93;;;10.33;;
17449;SDS011;8842;51.244;7.102;2023-11-21T20:13:37;10.50;;;10.00;;
17449;SDS011;8842;51.244;7.102;2023-11-21T20:18:41;9.83;;;9.33;;
17449;SDS011;8842;51.244;7.102;2023-11-21T20:23:45;10.07;;;9.57;;
17449;SDS011;8842;51.244;7.102;2023-11-21T20:28:50;10.00;;;9.50;;
17449;SDS011;8842;51.244;7.102;2023-11-21T20:33:55;10.50;;;10.00;;
17449;SDS011;8842;51.244;7.102;2023-11-21T20:38:59;10.30;;;9.80;;
17449;SDS011;8842;51.244;7.102;2023-11-21T20:44:03;10.50;;;10.00;;
17449;SDS011;8842;51.244;7.102;2023-11-21T20:49:15;11.00;;;10.40;;
17449;SDS011;8842;51.244;7.102;2023-11-21T20:54:20;11.00;;;10.40;;
17449;SDS011;8842;51.244;7.102;2023-11-21T20:59:32;10.90;;;10.30;;
17449;SDS011;8842;51.244;7.102;2023-11-21T21:04:36;10.77;;;10.20;;
17449;SDS011;8842;51.244;7.102;2023-11-21T21:09:48;10.10;;;9.60;;
17449;SDS011;8842;51.244;7.102;2023-11-21T21:14:52;10.00;;;9.50;;
17449;SDS011;8842;51.244;7.102;2023-11-21T21:19:58;9.40;;;8.90;;
17449;SDS011;8842;51.244;7.102;2023-11-21T21:25:10;9.60;;;9.10;;
17449;SDS011;8842;51.244;7.102;2023-11-21T21:30:15;9.17;;;8.73;;
17449;SDS011;8842;51.244;7.102;2023-11-21T21:35:20;9.60;;;9.10;;
17449;SDS011;8842;51.244;7.102;2023-11-21T21:40:24;9.40;;;8.90;;
17449;SDS011;8842;51.244;7.102;2023-11-21T21:45:29;9.87;;;9.37;;
17449;SDS011;8842;51.244;7.102;2023-11-21T21:50:33;10.00;;;9.50;;
17449;SDS011;8842;51.244;7.102;2023-11-21T21:55:45;9.50;;;9.00;;
17449;SDS011;8842;51.244;7.102;2023-11-21T22:00:49;10.00;;;9.50;;
17449;SDS011;8842;51.244;7.102;2023-11-21T22:05:54;9.83;;;9.33;;
17449;SDS011;8842;51.244;7.102;2023-11-21T22:11:00;9.50;;;9.00;;
17449;SDS011;8842;51.244;7.102;2023-11-21T22:16:05;9.30;;;8.80;;
17449;SDS011;8842;51.244;7.102;2023-11-21T22:21:14;9.10;;;8.70;;
17449;SDS011;8842;51.244;7.102;2023-11-21T22:26:26;9.43;;;8.93;;
17449;SDS011;8842;51.244;7.102;2023-11-21T22:31:40;9.37;;;8.87;;
17449;SDS011;8842;51.244;7.102;2023-11-21T22:36:51;9.67;;;9.17;;
17449;SDS011;8842;51.244;7.102;2023-11-21T22:42:14;9.30;;;8.80;;
17449;SDS011;8842;51.244;7.102;2023-11-21T22:47:19;9.00;;;8.60;;
17449;SDS011;8842;51.244;7.102;2023-11-21T22:52:33;9.17;;;8.70;;
17449;SDS011;8842;51.244;7.102;2023-11-21T22:57:37;9.10;;;8.70;;
17449;SDS011;8842;51.244;7.102;2023-11-21T23:02:52;9.10;;;8.70;;
17449;SDS011;8842;51.244;7.102;2023-11-21T23:07:58;8.90;;;8.50;;
17449;SDS011;8842;51.244;7.102;2023-11-21T23:13:12;9.00;;;8.60;;
17449;SDS011;8842;51.244;7.102;2023-11-21T23:18:16;8.80;;;8.40;;
17449;SDS011;8842;51.244;7.102;2023-11-21T23:23:22;8.70;;;8.30;;
17449;SDS011;8842;51.244;7.102;2023-11-21T23:28:36;8.63;;;8.23;;
17449;SDS011;8842;51.244;7.102;2023-11-21T23:33:40;8.80;;;8.40;;
17449;SDS011;8842;51.244;7.102;2023-11-21T23:38:44;8.60;;;8.20;;
17449;SDS011;8842;51.244;7.102;2023-11-21T23:43:48;9.00;;;8.60;;
17449;SDS011;8842;51.244;7.102;2023-11-21T23:48:52;8.80;;;8.40;;
17449;SDS011;8842;51.244;7.102;2023-11-21T23:53:56;8.77;;;8.37;;
17449;SDS011;8842;51.244;7.102;2023-11-21T23:59:01;8.50;;;8.10;;
